Time;durP1;ratioP1;P1;durP2;ratioP2;P2;SDS_P1;SDS_P2;PMS_P1;PMS_P2;Temp;Humidity;BMP_temperature;BMP_pressure;BME280_temperature;BME280_humidity;BME280_pressure;Samples;Min_cycle;Max_cycle;Signal;HPM_P1;HPM_P2
2021/04/28 00:00:23;;;;;;;1999.90;999.90;;;;;;;6.23;48.39;97787.03;5046105;28;20045;-64
2021/04/28 00:02:49;;;;;;;1999.90;999.90;;;;;;;6.45;47.94;97784.31;5044546;28;20052;-64
2021/04/28 00:05:16;;;;;;;1999.90;999.90;;;;;;;6.57;47.47;97791.97;5043357;28;20048;-64
2021/04/28 00:07:43;;;;;;;1999.90;999.90;;;;;;;6.09;48.83;97784.31;5046718;28;20541;-64
2021/04/28 00:10:12;;;;;;;1999.90;999.90;;;;;;;5.73;49.97;97782.34;5039505;28;20133;-64
2021/04/28 00:12:39;;;;;;;1999.90;999.90;;;;;;;5.77;50.08;97780.63;5044913;28;20041;-64
2021/04/28 00:15:13;;;;;;;1999.90;999.90;;;;;;;5.59;50.70;97785.94;5045592;28;20496;-64
2021/04/28 00:17:39;;;;;;;1999.90;999.90;;;;;;;5.54;51.07;97788.81;5036678;28;20059;-64
2021/04/28 00:20:08;;;;;;;1999.90;999.90;;;;;;;5.82;50.51;97786.00;5046155;28;20443;-64
2021/04/28 00:22:35;;;;;;;1999.90;999.90;;;;;;;5.99;49.65;97783.44;5043404;28;20095;-64
2021/04/28 00:25:05;;;;;;;1999.90;999.90;;;;;;;5.44;51.22;97783.53;5040088;28;20312;-64
2021/04/28 00:27:31;;;;;;;1999.90;999.90;;;;;;;5.42;51.23;97786.56;5044968;28;20443;-64
2021/04/28 00:30:00;;;;;;;1999.90;999.90;;;;;;;5.65;51.08;97781.16;5040299;28;20124;-64
2021/04/28 00:32:26;;;;;;;1999.90;999.90;;;;;;;6.14;50.13;97779.53;5047305;28;20420;-64
2021/04/28 00:34:53;;;;;;;1999.90;999.90;;;;;;;5.72;50.90;97778.00;5043411;28;20136;-64
2021/04/28 00:37:19;;;;;;;1999.90;999.90;;;;;;;5.52;51.60;97782.78;5046298;28;20103;-64
2021/04/28 00:39:45;;;;;;;1999.90;999.90;;;;;;;6.14;49.80;97776.00;5045212;28;20102;-64
2021/04/28 00:42:11;;;;;;;1999.90;999.90;;;;;;;6.13;49.65;97782.59;5042770;28;20087;-64
2021/04/28 00:44:37;;;;;;;1999.90;999.90;;;;;;;6.25;49.26;97785.63;5037278;28;20123;-64
2021/04/28 00:47:04;;;;;;;1999.90;999.90;;;;;;;6.59;48.61;97792.47;5043113;28;20049;-64
2021/04/28 00:49:30;;;;;;;1999.90;999.90;;;;;;;6.84;47.58;97791.00;5044767;28;20080;-64
2021/04/28 00:51:57;;;;;;;1999.90;999.90;;;;;;;6.58;48.69;97793.59;5041151;28;20103;-64
2021/04/28 00:54:24;;;;;;;1999.90;999.90;;;;;;;6.45;49.63;97786.25;5045227;28;20052;-64
2021/04/28 00:56:56;;;;;;;1999.90;999.90;;;;;;;6.25;49.45;97788.38;5041981;28;20429;-64
2021/04/28 00:59:22;;;;;;;1999.90;999.90;;;;;;;6.09;50.17;97781.59;5044698;28;20132;-64
2021/04/28 01:01:49;;;;;;;1999.90;999.90;;;;;;;6.06;49.98;97782.19;5038850;28;20056;-64
2021/04/28 01:04:16;;;;;;;1999.90;999.90;;;;;;;6.45;49.11;97783.50;5040902;28;20061;-64
2021/04/28 01:06:44;;;;;;;1999.90;999.90;;;;;;;6.56;48.70;97786.78;5043931;28;20075;-64
2021/04/28 01:09:14;;;;;;;1999.90;999.90;;;;;;;6.49;48.74;97785.31;5041046;28;20041;-65
2021/04/28 01:11:42;;;;;;;1999.90;999.90;;;;;;;6.61;49.30;97787.47;5043911;28;20053;-64
2021/04/28 01:14:09;;;;;;;1999.90;999.90;;;;;;;6.59;49.38;97781.47;5044527;28;20055;-64
2021/04/28 01:16:35;;;;;;;1999.90;999.90;;;;;;;6.54;49.55;97787.09;5035495;28;20496;-64
2021/04/28 01:19:03;;;;;;;1999.90;999.90;;;;;;;6.58;49.00;97787.28;5042187;28;20048;-64
2021/04/28 01:21:30;;;;;;;1999.90;999.90;;;;;;;6.50;49.26;97786.91;5042896;28;20049;-64
2021/04/28 01:23:57;;;;;;;1999.90;999.90;;;;;;;6.66;48.63;97779.09;5044071;28;20052;-64
2021/04/28 01:26:26;;;;;;;1999.90;999.90;;;;;;;6.70;49.19;97785.59;5039232;28;20115;-64
2021/04/28 01:28:55;;;;;;;1999.90;999.90;;;;;;;6.68;49.81;97793.34;5044723;28;20052;-64
2021/04/28 01:31:22;;;;;;;1999.90;999.90;;;;;;;6.76;49.39;97788.19;5044867;28;20045;-64
2021/04/28 01:33:54;;;;;;;1999.90;999.90;;;;;;;6.65;48.86;97793.16;5045849;28;20049;-64
2021/04/28 01:36:25;;;;;;;1999.90;999.90;;;;;;;6.42;50.35;97778.63;5036301;28;20547;-64
2021/04/28 01:38:54;;;;;;;1999.90;999.90;;;;;;;6.48;50.10;97778.19;5042334;28;20076;-64
2021/04/28 01:41:21;;;;;;;1999.90;999.90;;;;;;;6.58;50.38;97779.88;5040248;28;20045;-64
2021/04/28 01:43:48;;;;;;;1999.90;999.90;;;;;;;6.61;50.82;97784.75;5043671;28;20056;-64
2021/04/28 01:46:16;;;;;;;1999.90;999.90;;;;;;;6.62;51.20;97778.09;5029381;28;20075;-64
2021/04/28 01:48:44;;;;;;;1999.90;999.90;;;;;;;6.56;51.11;97781.31;5044137;28;20098;-64
2021/04/28 01:51:12;;;;;;;1999.90;999.90;;;;;;;6.61;50.35;97779.25;5043858;28;20086;-64
2021/04/28 01:53:38;;;;;;;1999.90;999.90;;;;;;;6.51;51.00;97779.50;5044302;28;20082;-64
2021/04/28 01:56:05;;;;;;;1999.90;999.90;;;;;;;6.24;51.01;97767.50;5041416;28;20064;-64
2021/04/28 01:58:31;;;;;;;1999.90;999.90;;;;;;;6.38;50.67;97772.94;5042947;28;20506;-64
2021/04/28 02:00:59;;;;;;;1999.90;999.90;;;;;;;6.39;50.70;97768.28;5047446;28;20167;-64
2021/04/28 02:03:26;;;;;;;1999.90;999.90;;;;;;;6.29;51.02;97770.13;5047290;28;20060;-64
2021/04/28 02:05:53;;;;;;;1999.90;999.90;;;;;;;6.24;50.87;97770.25;5048515;28;20063;-64
2021/04/28 02:08:20;;;;;;;1999.90;999.90;;;;;;;6.33;50.64;97765.63;5046194;28;20421;-64
2021/04/28 02:10:46;;;;;;;1999.90;999.90;;;;;;;6.22;51.06;97764.25;5047054;28;20098;-64
2021/04/28 02:13:18;;;;;;;1999.90;999.90;;;;;;;6.27;50.83;97766.88;5038680;28;20389;-64
2021/04/28 02:15:46;;;;;;;1999.90;999.90;;;;;;;6.33;50.75;97762.88;5042131;28;20057;-64
2021/04/28 02:18:14;;;;;;;1999.90;999.90;;;;;;;6.25;51.21;97755.41;5043263;28;20049;-64
2021/04/28 02:20:40;;;;;;;1999.90;999.90;;;;;;;6.38;50.79;97761.16;5044620;28;20114;-64
2021/04/28 02:23:07;;;;;;;1999.90;999.90;;;;;;;6.40;50.82;97764.38;5045432;28;20583;-65
2021/04/28 02:25:34;;;;;;;1999.90;999.90;;;;;;;6.46;51.08;97768.63;5032349;28;20110;-65
2021/04/28 02:28:01;;;;;;;1999.90;999.90;;;;;;;6.38;50.84;97763.91;5048089;28;20103;-65
2021/04/28 02:30:30;;;;;;;1999.90;999.90;;;;;;;6.15;51.36;97752.91;5043948;28;20098;-65
2021/04/28 02:32:56;;;;;;;1999.90;999.90;;;;;;;6.08;51.58;97761.56;5040963;28;20041;-65
2021/04/28 02:35:25;;;;;;;1999.90;999.90;;;;;;;6.23;51.57;97756.84;5049013;28;20060;-65
2021/04/28 02:38:14;;;;;;;1999.90;999.90;;;;;;;6.31;51.51;97765.16;5049559;28;20052;-65
2021/04/28 02:40:41;;;;;;;1999.90;999.90;;;;;;;6.21;51.41;97759.91;5047749;28;20045;-65
2021/04/28 02:43:10;;;;;;;1999.90;999.90;;;;;;;6.10;52.01;97761.25;5045501;28;20463;-65
2021/04/28 02:45:37;;;;;;;1999.90;999.90;;;;;;;6.12;51.99;97762.56;5045161;28;20048;-65
2021/04/28 02:48:04;;;;;;;1999.90;999.90;;;;;;;5.74;53.69;97754.63;5047809;28;20126;-65
2021/04/28 02:50:30;;;;;;;1999.90;999.90;;;;;;;5.69;54.04;97753.94;5047019;28;20052;-65
2021/04/28 02:52:58;;;;;;;1999.90;999.90;;;;;;;5.77;53.19;97758.69;5050169;28;20605;-65
2021/04/28 02:55:25;;;;;;;1999.90;999.90;;;;;;;5.91;53.15;97759.47;5046130;28;20049;-65
2021/04/28 02:57:51;;;;;;;1999.90;999.90;;;;;;;5.90;53.21;97757.84;5045111;28;20048;-65
2021/04/28 03:00:20;;;;;;;1999.90;999.90;;;;;;;6.05;54.38;97758.66;5049020;28;20068;-65
2021/04/28 03:02:47;;;;;;;1999.90;999.90;;;;;;;6.01;55.02;97752.94;5045462;28;20048;-64
2021/04/28 03:05:19;;;;;;;1999.90;999.90;;;;;;;6.04;55.29;97759.75;5047359;28;20053;-65
2021/04/28 03:07:46;;;;;;;1999.90;999.90;;;;;;;6.04;55.47;97749.56;5045935;28;20057;-65
2021/04/28 03:10:14;;;;;;;1999.90;999.90;;;;;;;5.87;55.42;97752.97;5049051;28;20063;-65
2021/04/28 03:12:42;;;;;;;1999.90;999.90;;;;;;;5.72;55.18;97756.06;5040152;28;20045;-65
2021/04/28 03:15:11;;;;;;;1999.90;999.90;;;;;;;5.69;54.81;97753.94;5045345;28;20056;-65
2021/04/28 03:17:38;;;;;;;1999.90;999.90;;;;;;;5.60;54.60;97759.34;5040112;28;20502;-65
2021/04/28 03:20:07;;;;;;;1999.90;999.90;;;;;;;5.44;55.21;97756.09;5044247;28;20135;-64
2021/04/28 03:22:36;;;;;;;1999.90;999.90;;;;;;;5.40;55.23;97755.09;5045109;28;20053;-65
2021/04/28 03:25:04;;;;;;;1999.90;999.90;;;;;;;5.42;54.75;97750.94;5044360;28;20088;-65
2021/04/28 03:27:30;;;;;;;1999.90;999.90;;;;;;;5.44;54.86;97767.06;5044773;28;20107;-65
2021/04/28 03:29:57;;;;;;;1999.90;999.90;;;;;;;5.11;55.82;97761.69;5035172;28;20037;-64
2021/04/28 03:32:23;;;;;;;1999.90;999.90;;;;;;;5.05;56.18;97758.25;5026847;28;20132;-64
2021/04/28 03:34:49;;;;;;;1999.90;999.90;;;;;;;5.06;56.28;97759.03;5042819;28;20423;-63
2021/04/28 03:37:15;;;;;;;1999.90;999.90;;;;;;;5.24;55.70;97754.56;5036627;28;20049;-64
2021/04/28 03:39:42;;;;;;;1999.90;999.90;;;;;;;5.33;55.15;97755.50;5047563;28;20044;-64
2021/04/28 03:42:08;;;;;;;1999.90;999.90;;;;;;;5.38;55.54;97762.81;5046472;28;20037;-64
2021/04/28 03:44:34;;;;;;;1999.90;999.90;;;;;;;5.64;54.85;97744.69;5045472;28;20053;-64
2021/04/28 03:47:00;;;;;;;1999.90;999.90;;;;;;;5.56;55.22;97753.63;5045424;28;20087;-64
2021/04/28 03:49:27;;;;;;;1999.90;999.90;;;;;;;5.51;55.36;97753.75;5043357;28;20049;-64
2021/04/28 03:51:53;;;;;;;1999.90;999.90;;;;;;;5.46;55.07;97751.94;5039927;28;20092;-64
2021/04/28 03:54:19;;;;;;;1999.90;999.90;;;;;;;5.68;54.58;97753.09;5047000;28;20084;-64
2021/04/28 03:56:46;;;;;;;1999.90;999.90;;;;;;;5.81;54.13;97748.72;5033984;28;20060;-64
2021/04/28 03:59:12;;;;;;;1999.90;999.90;;;;;;;5.93;53.90;97748.97;5045140;28;20056;-64
2021/04/28 04:01:40;;;;;;;1999.90;999.90;;;;;;;5.98;54.07;97748.91;5036995;28;20284;-64
2021/04/28 04:04:07;;;;;;;1999.90;999.90;;;;;;;5.84;54.70;97753.59;5047205;28;20048;-64
2021/04/28 04:06:36;;;;;;;1999.90;999.90;;;;;;;5.94;54.01;97758.84;5037754;28;20055;-64
2021/04/28 04:09:04;;;;;;;1999.90;999.90;;;;;;;6.12;54.07;97753.53;5041166;28;20072;-64
2021/04/28 04:11:30;;;;;;;1999.90;999.90;;;;;;;6.15;53.42;97755.66;5027158;28;20053;-64
2021/04/28 04:13:56;;;;;;;1999.90;999.90;;;;;;;6.28;53.24;97753.97;5036711;28;20053;-64
2021/04/28 04:16:22;;;;;;;1999.90;999.90;;;;;;;6.51;53.04;97760.28;5033945;28;20122;-64
2021/04/28 04:18:49;;;;;;;1999.90;999.90;;;;;;;6.85;51.88;97754.16;5031826;28;20132;-64
2021/04/28 04:21:15;;;;;;;1999.90;999.90;;;;;;;7.13;50.97;97761.38;5033129;28;20049;-64
2021/04/28 04:23:41;;;;;;;1999.90;999.90;;;;;;;7.27;50.93;97756.59;5034820;28;20107;-64
2021/04/28 04:26:07;;;;;;;1999.90;999.90;;;;;;;7.56;50.25;97757.97;5031228;28;20049;-65
2021/04/28 04:28:33;;;;;;;1999.90;999.90;;;;;;;7.68;49.70;97758.16;5029680;28;20057;-66
2021/04/28 04:30:59;;;;;;;1999.90;999.90;;;;;;;7.97;48.89;97766.94;5033418;28;20409;-64
2021/04/28 04:33:25;;;;;;;1999.90;999.90;;;;;;;7.70;49.58;97772.41;5030479;28;20057;-64
2021/04/28 04:35:51;;;;;;;1999.90;999.90;;;;;;;7.68;49.44;97771.94;5035416;28;20107;-64
2021/04/28 04:38:17;;;;;;;1999.90;999.90;;;;;;;8.13;48.76;97770.00;5032730;28;20106;-64
2021/04/28 04:40:44;;;;;;;1999.90;999.90;;;;;;;7.92;49.05;97763.22;5038170;28;20053;-64
2021/04/28 04:43:10;;;;;;;1999.90;999.90;;;;;;;8.21;48.59;97760.97;5021464;28;20118;-64
2021/04/28 04:45:37;;;;;;;1999.90;999.90;;;;;;;8.52;47.71;97757.25;5039537;28;20052;-64
2021/04/28 04:48:06;;;;;;;1999.90;999.90;;;;;;;8.52;47.75;97758.03;5039285;28;20106;-64
2021/04/28 04:50:33;;;;;;;1999.90;999.90;;;;;;;8.36;48.69;97767.91;5029151;28;20060;-64
2021/04/28 04:52:59;;;;;;;1999.90;999.90;;;;;;;8.35;48.79;97767.13;5042010;28;20057;-66
2021/04/28 04:55:25;;;;;;;1999.90;999.90;;;;;;;7.84;50.27;97769.50;5040917;28;20133;-63
2021/04/28 04:57:51;;;;;;;1999.90;999.90;;;;;;;7.94;50.85;97771.16;5042200;28;20048;-63
2021/04/28 05:00:19;;;;;;;1999.90;999.90;;;;;;;8.40;50.03;97755.13;5042227;28;20049;-63
2021/04/28 05:02:46;;;;;;;1999.90;999.90;;;;;;;8.78;49.97;97768.19;5042342;28;20049;-63
2021/04/28 05:05:13;;;;;;;1999.90;999.90;;;;;;;8.41;49.44;97768.56;5039750;28;20063;-64
2021/04/28 05:07:39;;;;;;;1999.90;999.90;;;;;;;8.62;49.48;97763.22;5040765;28;20166;-63
2021/04/28 05:10:07;;;;;;;1999.90;999.90;;;;;;;8.61;49.61;97760.78;5044098;28;20049;-63
2021/04/28 05:12:33;;;;;;;1999.90;999.90;;;;;;;8.73;49.43;97760.13;5042422;28;20462;-64
2021/04/28 05:14:59;;;;;;;1999.90;999.90;;;;;;;8.64;50.10;97760.13;5039159;28;20054;-63
2021/04/28 05:17:25;;;;;;;1999.90;999.90;;;;;;;8.70;50.14;97761.56;5042289;28;20053;-63
2021/04/28 05:19:51;;;;;;;1999.90;999.90;;;;;;;8.94;49.86;97757.47;5038598;28;20057;-63
2021/04/28 05:22:22;;;;;;;1999.90;999.90;;;;;;;8.71;50.03;97757.69;5043724;28;20057;-65
2021/04/28 05:24:49;;;;;;;1999.90;999.90;;;;;;;8.92;49.83;97759.75;5021604;28;20050;-65
2021/04/28 05:27:16;;;;;;;1999.90;999.90;;;;;;;8.54;50.82;97760.47;5035034;28;20444;-65
2021/04/28 05:29:43;;;;;;;1999.90;999.90;;;;;;;8.44;50.48;97751.41;5043398;28;20073;-65
2021/04/28 05:32:09;;;;;;;1999.90;999.90;;;;;;;8.75;50.09;97755.91;5045790;28;20447;-65
2021/04/28 05:34:36;;;;;;;1999.90;999.90;;;;;;;8.99;49.24;97762.78;5041159;28;20071;-65
2021/04/28 05:37:04;;;;;;;1999.90;999.90;;;;;;;8.66;49.37;97762.56;5043380;28;20060;-65
2021/04/28 05:39:31;;;;;;;1999.90;999.90;;;;;;;9.15;48.83;97761.13;5046421;28;20064;-65
2021/04/28 05:41:58;;;;;;;1999.90;999.90;;;;;;;9.41;48.11;97757.44;5045846;28;20060;-65
2021/04/28 05:44:25;;;;;;;1999.90;999.90;;;;;;;8.66;49.73;97763.34;5040523;28;20143;-65
2021/04/28 05:46:51;;;;;;;1999.90;999.90;;;;;;;9.18;49.49;97761.59;5043943;28;20064;-65
2021/04/28 05:49:17;;;;;;;1999.90;999.90;;;;;;;9.55;48.05;97765.47;5041105;28;20060;-65
2021/04/28 05:51:43;;;;;;;1999.90;999.90;;;;;;;8.94;49.26;97763.78;5038717;28;20090;-64
2021/04/28 05:54:09;;;;;;;1999.90;999.90;;;;;;;9.24;48.63;97760.28;5037369;28;20467;-65
2021/04/28 05:56:39;;;;;;;1999.90;999.90;;;;;;;9.69;47.66;97760.53;5043285;28;20122;-65
2021/04/28 05:59:06;;;;;;;1999.90;999.90;;;;;;;9.93;47.14;97753.56;5046159;28;20666;-65
2021/04/28 06:01:32;;;;;;;1999.90;999.90;;;;;;;10.09;45.19;97756.50;5041698;28;20103;-65
2021/04/28 06:03:59;;;;;;;1999.90;999.90;;;;;;;9.77;44.95;97760.81;5043087;28;20523;-65
2021/04/28 06:06:25;;;;;;;1999.90;999.90;;;;;;;9.93;45.15;97759.06;5042966;28;20045;-65
2021/04/28 06:08:52;;;;;;;1999.90;999.90;;;;;;;10.22;44.74;97755.41;5044488;28;20055;-64
2021/04/28 06:11:18;;;;;;;1999.90;999.90;;;;;;;10.31;45.34;97768.38;5040925;28;20103;-65
2021/04/28 06:13:46;;;;;;;1999.90;999.90;;;;;;;10.59;45.69;97757.56;5046650;28;20114;-64
2021/04/28 06:16:14;;;;;;;1999.90;999.90;;;;;;;10.54;45.78;97766.91;5044754;28;20064;-64
2021/04/28 06:18:45;;;;;;;1999.90;999.90;;;;;;;10.61;44.89;97760.00;5047608;28;20528;-64
2021/04/28 06:21:11;;;;;;;1999.90;999.90;;;;;;;10.30;45.14;97761.22;5045509;28;20040;-64
2021/04/28 06:23:38;;;;;;;1999.90;999.90;;;;;;;10.18;46.02;97754.50;5044320;28;20055;-65
2021/04/28 06:26:05;;;;;;;1999.90;999.90;;;;;;;10.70;44.59;97747.72;5043211;28;20053;-65
2021/04/28 06:28:32;;;;;;;1999.90;999.90;;;;;;;10.49;45.02;97756.03;5040955;28;20135;-65
2021/04/28 06:30:59;;;;;;;1999.90;999.90;;;;;;;10.67;43.91;97758.63;5046418;28;20051;-66
2021/04/28 06:33:25;;;;;;;1999.90;999.90;;;;;;;10.73;42.59;97762.78;5045071;28;20048;-65
2021/04/28 06:35:51;;;;;;;1999.90;999.90;;;;;;;11.36;40.58;97754.28;5044193;28;20527;-66
2021/04/28 06:38:17;;;;;;;1999.90;999.90;;;;;;;11.43;39.49;97751.75;5042969;28;20104;-67
2021/04/28 06:40:44;;;;;;;1999.90;999.90;;;;;;;11.71;38.47;97755.75;5043119;28;20493;-65
2021/04/28 06:43:10;;;;;;;1999.90;999.90;;;;;;;11.32;39.46;97750.56;5044916;28;20491;-65
2021/04/28 06:45:49;;;;;;;1999.90;999.90;;;;;;;11.74;38.31;97749.53;5042569;28;20053;-65
2021/04/28 06:48:15;;;;;;;1999.90;999.90;;;;;;;12.45;36.91;97744.53;5045382;28;20060;-65
2021/04/28 06:50:41;;;;;;;1999.90;999.90;;;;;;;12.35;36.73;97747.81;5045645;28;20053;-65
2021/04/28 06:53:07;;;;;;;1999.90;999.90;;;;;;;12.62;38.38;97743.41;5045755;28;20052;-65
2021/04/28 06:55:34;;;;;;;1999.90;999.90;;;;;;;12.75;35.35;97739.41;5045605;28;20098;-65
2021/04/28 06:58:00;;;;;;;1999.90;999.90;;;;;;;13.26;35.48;97738.75;5045536;28;20084;-65
2021/04/28 07:00:28;;;;;;;1999.90;999.90;;;;;;;13.78;34.93;97747.94;5043421;28;20050;-65
2021/04/28 07:02:58;;;;;;;1999.90;999.90;;;;;;;14.20;34.36;97743.69;5029134;28;20122;-65
2021/04/28 07:05:26;;;;;;;1999.90;999.90;;;;;;;13.55;35.20;97733.94;5045225;28;20318;-65
2021/04/28 07:07:53;;;;;;;1999.90;999.90;;;;;;;13.90;35.41;97739.50;5042126;28;20073;-65
2021/04/28 07:10:19;;;;;;;1999.90;999.90;;;;;;;13.48;35.72;97742.09;5045488;28;20049;-65
2021/04/28 07:12:45;;;;;;;1999.90;999.90;;;;;;;13.96;36.79;97742.78;5043264;28;20099;-66
2021/04/28 07:15:12;;;;;;;1999.90;999.90;;;;;;;13.86;36.04;97746.13;5041767;28;20044;-66
2021/04/28 07:17:38;;;;;;;1999.90;999.90;;;;;;;14.17;35.01;97741.66;5041527;28;20053;-64
2021/04/28 07:20:08;;;;;;;1999.90;999.90;;;;;;;14.44;35.05;97749.00;5041547;28;20056;-65
2021/04/28 07:22:35;;;;;;;1999.90;999.90;;;;;;;14.02;35.52;97752.47;5045280;28;20171;-65
2021/04/28 07:25:02;;;;;;;1999.90;999.90;;;;;;;14.04;35.11;97752.13;5045009;28;20416;-66
2021/04/28 07:27:28;;;;;;;1999.90;999.90;;;;;;;14.25;35.50;97749.00;5041166;28;20060;-64
2021/04/28 07:29:58;;;;;;;1999.90;999.90;;;;;;;14.66;34.63;97748.66;5034754;28;20111;-66
2021/04/28 07:32:24;;;;;;;1999.90;999.90;;;;;;;15.56;35.72;97750.25;5041413;28;20052;-65
2021/04/28 07:34:51;;;;;;;1999.90;999.90;;;;;;;15.92;33.05;97748.03;5044114;28;20141;-65
2021/04/28 07:37:17;;;;;;;1999.90;999.90;;;;;;;16.24;33.51;97744.88;5046008;28;20053;-65
2021/04/28 07:39:43;;;;;;;1999.90;999.90;;;;;;;16.01;33.20;97748.56;5044781;28;20060;-65
2021/04/28 07:42:09;;;;;;;1999.90;999.90;;;;;;;14.75;35.56;97744.47;5041686;28;20045;-65
2021/04/28 07:44:35;;;;;;;1999.90;999.90;;;;;;;14.69;35.35;97740.34;5042042;28;20111;-66
2021/04/28 07:47:02;;;;;;;1999.90;999.90;;;;;;;15.30;35.55;97740.66;5038598;28;20456;-65
2021/04/28 07:49:28;;;;;;;1999.90;999.90;;;;;;;15.02;34.90;97736.22;5042051;28;20052;-65
2021/04/28 07:51:55;;;;;;;1999.90;999.90;;;;;;;16.16;34.31;97730.84;5044372;28;20049;-65
2021/04/28 07:54:22;;;;;;;1999.90;999.90;;;;;;;15.42;34.23;97726.56;5044892;28;20060;-65
2021/04/28 07:56:49;;;;;;;1999.90;999.90;;;;;;;16.54;33.39;97733.72;5043265;28;20443;-66
2021/04/28 07:59:15;;;;;;;1999.90;999.90;;;;;;;16.02;33.21;97725.09;5040449;28;20052;-64
2021/04/28 08:01:41;;;;;;;1999.90;999.90;;;;;;;16.08;33.09;97723.56;5044811;28;20439;-65
2021/04/28 08:04:08;;;;;;;1999.90;999.90;;;;;;;16.44;33.57;97729.63;5040841;28;20052;-65
2021/04/28 08:06:34;;;;;;;1999.90;999.90;;;;;;;16.10;34.37;97729.56;5041620;28;20060;-65
2021/04/28 08:09:02;;;;;;;1999.90;999.90;;;;;;;15.77;34.27;97725.50;5044481;28;20056;-64
2021/04/28 08:11:28;;;;;;;1999.90;999.90;;;;;;;16.36;33.77;97734.31;5040952;28;20048;-65
2021/04/28 08:13:54;;;;;;;1999.90;999.90;;;;;;;16.99;33.89;97726.25;5037040;28;20060;-65
2021/04/28 08:16:20;;;;;;;1999.90;999.90;;;;;;;16.18;32.91;97727.69;5045126;28;20048;-65
2021/04/28 08:18:48;;;;;;;1999.90;999.90;;;;;;;15.63;34.41;97723.31;5036164;28;20052;-65
2021/04/28 08:21:15;;;;;;;1999.90;999.90;;;;;;;15.48;34.26;97727.03;5042603;28;20549;-65
2021/04/28 08:23:43;;;;;;;1999.90;999.90;;;;;;;16.63;34.18;97725.03;5022846;28;20099;-65
2021/04/28 08:26:10;;;;;;;1999.90;999.90;;;;;;;15.96;33.94;97721.03;5040416;28;20056;-65
2021/04/28 08:28:40;;;;;;;1999.90;999.90;;;;;;;16.96;32.13;97729.81;5032768;28;20049;-65
2021/04/28 08:31:09;;;;;;;1999.90;999.90;;;;;;;17.69;31.74;97711.69;5041499;28;20432;-66
2021/04/28 08:33:37;;;;;;;1999.90;999.90;;;;;;;18.15;31.26;97715.97;5043372;28;20106;-65
2021/04/28 08:36:05;;;;;;;1999.90;999.90;;;;;;;17.48;29.57;97715.13;5040718;28;20096;-66
2021/04/28 08:38:32;;;;;;;1999.90;999.90;;;;;;;17.51;30.73;97712.34;5039782;28;20107;-65
2021/04/28 08:40:59;;;;;;;1999.90;999.90;;;;;;;16.18;32.65;97716.53;5043458;28;20049;-65
2021/04/28 08:43:26;;;;;;;1999.90;999.90;;;;;;;16.86;32.05;97711.72;5043881;28;20072;-65
2021/04/28 08:45:56;;;;;;;1999.90;999.90;;;;;;;15.68;33.23;97714.63;5040949;28;20049;-65
2021/04/28 08:48:23;;;;;;;1999.90;999.90;;;;;;;15.25;36.68;97718.72;5043048;28;20068;-64
2021/04/28 08:50:49;;;;;;;1999.90;999.90;;;;;;;16.28;32.73;97718.66;5040638;28;20045;-64
2021/04/28 08:53:16;;;;;;;1999.90;999.90;;;;;;;16.20;32.02;97720.53;5038413;28;20049;-63
2021/04/28 08:55:44;;;;;;;1999.90;999.90;;;;;;;15.70;34.35;97717.03;5038551;28;20522;-63
2021/04/28 08:58:12;;;;;;;1999.90;999.90;;;;;;;16.42;32.14;97709.66;5040750;28;20484;-64
2021/04/28 09:00:38;;;;;;;1999.90;999.90;;;;;;;16.09;31.95;97716.00;5036625;28;20060;-64
2021/04/28 09:03:05;;;;;;;1999.90;999.90;;;;;;;16.55;31.68;97716.59;5038502;28;20451;-65
2021/04/28 09:05:33;;;;;;;1999.90;999.90;;;;;;;16.35;31.09;97715.16;5034261;28;20067;-64
2021/04/28 09:08:01;;;;;;;1999.90;999.90;;;;;;;17.08;31.00;97704.41;5041926;28;20049;-64
2021/04/28 09:10:29;;;;;;;1999.90;999.90;;;;;;;17.65;30.33;97708.06;5043694;28;20053;-64
2021/04/28 09:13:04;;;;;;;1999.90;999.90;;;;;;;17.32;30.62;97701.44;5049337;28;20064;-64
2021/04/28 09:15:44;;;;;;;1999.90;999.90;;;;;;;17.50;32.08;97699.56;5039019;28;20060;-64
2021/04/28 09:18:13;;;;;;;1999.90;999.90;;;;;;;18.05;28.26;97693.16;5037557;28;20060;-64
2021/04/28 09:20:46;;;;;;;1999.90;999.90;;;;;;;18.41;27.89;97696.09;5048406;28;20045;-65
2021/04/28 09:23:18;;;;;;;1999.90;999.90;;;;;;;18.78;29.00;97697.81;5042518;28;20064;-64
2021/04/28 09:25:52;;;;;;;1999.90;999.90;;;;;;;18.45;30.10;97690.53;5041961;28;20415;-64
2021/04/28 09:28:28;;;;;;;1999.90;999.90;;;;;;;17.45;30.14;97691.56;5042691;28;20049;-65
2021/04/28 09:31:06;;;;;;;1999.90;999.90;;;;;;;17.22;29.83;97688.97;5044662;28;20126;-65
2021/04/28 09:33:41;;;;;;;1999.90;999.90;;;;;;;17.46;31.54;97681.16;5045250;28;20547;-65
2021/04/28 09:36:08;;;;;;;1999.90;999.90;;;;;;;16.24;30.85;97691.91;5031462;28;20072;-64
2021/04/28 09:38:56;;;;;;;1999.90;999.90;;;;;;;18.33;28.80;97665.72;5046259;28;20056;-65
2021/04/28 09:41:45;;;;;;;1999.90;999.90;;;;;;;18.12;28.76;97678.41;5051572;28;20045;-65
2021/04/28 09:44:20;;;;;;;1999.90;999.90;;;;;;;17.00;29.99;97672.03;5049153;28;20064;-64
2021/04/28 09:47:05;;;;;;;1999.90;999.90;;;;;;;17.40;30.37;97670.38;5044389;28;20056;-65
2021/04/28 09:50:03;;;;;;;1999.90;999.90;;;;;;;17.95;28.71;97663.94;5041314;28;20053;-66
2021/04/28 09:52:29;;;;;;;1999.90;999.90;;;;;;;18.83;28.19;97660.22;5041044;28;20053;-66
2021/04/28 09:54:59;;;;;;;1999.90;999.90;;;;;;;18.61;29.44;97662.19;5040918;28;20579;-65
2021/04/28 09:57:39;;;;;;;1999.90;999.90;;;;;;;18.28;27.94;97650.06;5037673;28;20554;-66
2021/04/28 10:00:25;;;;;;;1999.90;999.90;;;;;;;18.76;28.25;97658.22;5035730;28;20056;-66
2021/04/28 10:03:00;;;;;;;1999.90;999.90;;;;;;;18.74;28.05;97660.63;5046507;28;20110;-66
2021/04/28 10:05:28;;;;;;;1999.90;999.90;;;;;;;19.81;28.62;97649.84;5045322;28;20052;-66
2021/04/28 10:08:12;;;;;;;1999.90;999.90;;;;;;;19.85;25.56;97648.63;5047941;28;20048;-66
2021/04/28 10:10:40;;;;;;;1999.90;999.90;;;;;;;19.23;26.78;97651.88;5047546;28;20412;-66
2021/04/28 10:13:09;;;;;;;1999.90;999.90;;;;;;;19.06;27.27;97645.09;5042733;28;20049;-64
2021/04/28 10:15:36;;;;;;;1999.90;999.90;;;;;;;17.99;27.94;97646.38;5051234;28;20411;-64
2021/04/28 10:18:05;;;;;;;1999.90;999.90;;;;;;;17.17;29.86;97642.63;5038518;28;20055;-64
2021/04/28 10:20:32;;;;;;;1999.90;999.90;;;;;;;17.35;28.99;97637.19;5037345;28;20055;-65
2021/04/28 10:23:10;;;;;;;1999.90;999.90;;;;;;;19.19;27.85;97637.88;5030234;28;20057;-65
2021/04/28 10:25:37;;;;;;;1999.90;999.90;;;;;;;20.10;26.81;97632.91;5044172;28;20053;-65
2021/04/28 10:28:06;;;;;;;1999.90;999.90;;;;;;;19.01;26.92;97632.28;5039907;28;20045;-64
2021/04/28 10:30:40;;;;;;;1999.90;999.90;;;;;;;18.78;27.76;97627.03;5045106;28;20399;-64
2021/04/28 10:33:12;;;;;;;1999.90;999.90;;;;;;;18.30;28.79;97628.91;5041466;28;20500;-64
2021/04/28 10:35:39;;;;;;;1999.90;999.90;;;;;;;17.94;29.37;97623.19;5045298;28;20053;-66
2021/04/28 10:38:06;;;;;;;1999.90;999.90;;;;;;;18.22;28.41;97621.69;5046897;28;20053;-65
2021/04/28 10:40:35;;;;;;;1999.90;999.90;;;;;;;19.22;27.06;97611.88;5047827;28;20045;-65
2021/04/28 10:43:09;;;;;;;1999.90;999.90;;;;;;;20.08;27.85;97610.84;5038112;28;20129;-65
2021/04/28 10:45:39;;;;;;;1999.90;999.90;;;;;;;17.67;28.86;97619.00;5041069;28;20061;-64
2021/04/28 10:48:40;;;;;;;1999.90;999.90;;;;;;;17.33;31.13;97616.41;5031349;28;20550;-64
2021/04/28 10:51:06;;;;;;;1999.90;999.90;;;;;;;16.92;30.16;97611.72;5045199;28;20055;-64
2021/04/28 10:53:32;;;;;;;1999.90;999.90;;;;;;;17.56;29.08;97608.56;5043274;28;20099;-64
2021/04/28 10:56:06;;;;;;;1999.90;999.90;;;;;;;17.29;30.43;97610.00;5046812;28;20668;-64
2021/04/28 10:58:38;;;;;;;1999.90;999.90;;;;;;;17.64;29.84;97615.03;5035315;28;20231;-64
2021/04/28 11:01:07;;;;;;;1999.90;999.90;;;;;;;19.03;28.57;97604.66;5042782;28;20396;-65